sensor_id;sensor_type;location;lat;lon;timestamp;pressure;altitude;pressure_sealevel;temperature;humidity
71109;BME280;59614;51.012;-1.648;2023-03-25T00:01:29;99206.84;;;7.99;95.16
71109;BME280;59614;51.012;-1.648;2023-03-25T00:03:58;99212.88;;;8.02;95.59
71109;BME280;59614;51.012;-1.648;2023-03-25T00:06:25;99211.34;;;7.94;95.46
71109;BME280;59614;51.012;-1.648;2023-03-25T00:08:50;99218.41;;;7.92;95.40
71109;BME280;59614;51.012;-1.648;2023-03-25T00:11:16;99211.53;;;7.86;95.57
71109;BME280;59614;51.012;-1.648;2023-03-25T00:13:41;99216.84;;;7.83;96.61
71109;BME280;59614;51.012;-1.648;2023-03-25T00:16:07;99214.34;;;7.78;96.05
71109;BME280;59614;51.012;-1.648;2023-03-25T00:18:34;99220.66;;;7.71;97.43
71109;BME280;59614;51.012;-1.648;2023-03-25T00:21:03;99221.09;;;7.52;97.17
71109;BME280;59614;51.012;-1.648;2023-03-25T00:23:30;99217.47;;;7.56;96.12
71109;BME280;59614;51.012;-1.648;2023-03-25T00:25:56;99221.41;;;7.76;95.75
71109;BME280;59614;51.012;-1.648;2023-03-25T00:28:26;99223.34;;;7.68;94.98
71109;BME280;59614;51.012;-1.648;2023-03-25T00:30:52;99232.22;;;7.64;95.41
71109;BME280;59614;51.012;-1.648;2023-03-25T00:33:18;99229.69;;;7.59;94.29
71109;BME280;59614;51.012;-1.648;2023-03-25T00:35:43;99230.56;;;7.60;95.62
71109;BME280;59614;51.012;-1.648;2023-03-25T00:38:12;99242.72;;;7.64;95.92
71109;BME280;59614;51.012;-1.648;2023-03-25T00:40:39;99237.38;;;7.67;94.12
71109;BME280;59614;51.012;-1.648;2023-03-25T00:43:05;99241.06;;;7.60;93.92
71109;BME280;59614;51.012;-1.648;2023-03-25T00:45:32;99241.63;;;7.72;94.18
71109;BME280;59614;51.012;-1.648;2023-03-25T00:47:57;99237.84;;;7.84;93.42
71109;BME280;59614;51.012;-1.648;2023-03-25T00:50:23;99229.38;;;7.71;93.13
71109;BME280;59614;51.012;-1.648;2023-03-25T00:52:49;99226.84;;;7.68;92.67
71109;BME280;59614;51.012;-1.648;2023-03-25T00:55:15;99226.25;;;7.55;93.86
71109;BME280;59614;51.012;-1.648;2023-03-25T00:57:41;99225.75;;;7.39;94.17
71109;BME280;59614;51.012;-1.648;2023-03-25T01:00:10;99237.81;;;7.48;94.37
71109;BME280;59614;51.012;-1.648;2023-03-25T01:02:36;99235.34;;;7.42;93.59
71109;BME280;59614;51.012;-1.648;2023-03-25T01:05:04;99244.91;;;7.43;95.01
71109;BME280;59614;51.012;-1.648;2023-03-25T01:07:29;99237.03;;;7.45;94.29
71109;BME280;59614;51.012;-1.648;2023-03-25T01:09:56;99239.88;;;7.34;95.02
71109;BME280;59614;51.012;-1.648;2023-03-25T01:12:22;99245.28;;;7.28;95.84
71109;BME280;59614;51.012;-1.648;2023-03-25T01:14:48;99237.34;;;7.31;95.98
71109;BME280;59614;51.012;-1.648;2023-03-25T01:17:13;99237.47;;;7.24;95.71
71109;BME280;59614;51.012;-1.648;2023-03-25T01:19:39;99226.94;;;7.26;95.24
71109;BME280;59614;51.012;-1.648;2023-03-25T01:22:05;99233.00;;;7.28;94.22
71109;BME280;59614;51.012;-1.648;2023-03-25T01:24:31;99234.00;;;7.22;94.85
71109;BME280;59614;51.012;-1.648;2023-03-25T01:26:56;99237.34;;;7.29;95.63
71109;BME280;59614;51.012;-1.648;2023-03-25T01:29:22;99233.09;;;7.25;95.80
71109;BME280;59614;51.012;-1.648;2023-03-25T01:31:47;99233.25;;;7.17;95.71
71109;BME280;59614;51.012;-1.648;2023-03-25T01:34:14;99235.63;;;7.30;94.26
71109;BME280;59614;51.012;-1.648;2023-03-25T01:36:39;99235.81;;;7.20;94.50
71109;BME280;59614;51.012;-1.648;2023-03-25T01:39:07;99240.34;;;7.12;95.21
71109;BME280;59614;51.012;-1.648;2023-03-25T01:41:34;99239.25;;;7.22;94.42
71109;BME280;59614;51.012;-1.648;2023-03-25T01:46:28;99235.66;;;7.26;94.12
71109;BME280;59614;51.012;-1.648;2023-03-25T01:48:54;99236.63;;;7.22;94.67
71109;BME280;59614;51.012;-1.648;2023-03-25T01:51:23;99241.75;;;7.29;94.91
71109;BME280;59614;51.012;-1.648;2023-03-25T01:53:52;99240.81;;;7.31;94.04
71109;BME280;59614;51.012;-1.648;2023-03-25T01:56:21;99242.53;;;7.32;93.62
71109;BME280;59614;51.012;-1.648;2023-03-25T01:58:50;99245.50;;;7.17;93.99
71109;BME280;59614;51.012;-1.648;2023-03-25T02:01:17;99247.75;;;7.35;93.91
71109;BME280;59614;51.012;-1.648;2023-03-25T02:03:47;99241.19;;;7.14;94.25
71109;BME280;59614;51.012;-1.648;2023-03-25T02:06:19;99250.81;;;7.14;94.25
71109;BME280;59614;51.012;-1.648;2023-03-25T02:08:48;99244.94;;;7.02;94.85
71109;BME280;59614;51.012;-1.648;2023-03-25T02:11:17;99252.47;;;7.19;94.76
71109;BME280;59614;51.012;-1.648;2023-03-25T02:13:42;99245.38;;;7.21;94.93
71109;BME280;59614;51.012;-1.648;2023-03-25T02:27:03;99234.41;;;7.04;96.80
71109;BME280;59614;51.012;-1.648;2023-03-25T02:41:40;99261.31;;;7.14;97.95
71109;BME280;59614;51.012;-1.648;2023-03-25T02:46:53;99250.88;;;7.10;98.41
71109;BME280;59614;51.012;-1.648;2023-03-25T02:49:27;99260.22;;;7.24;97.72
71109;BME280;59614;51.012;-1.648;2023-03-25T02:51:59;99252.34;;;7.24;98.26
71109;BME280;59614;51.012;-1.648;2023-03-25T02:54:27;99270.72;;;7.24;98.14
71109;BME280;59614;51.012;-1.648;2023-03-25T02:56:55;99266.06;;;7.37;97.92
71109;BME280;59614;51.012;-1.648;2023-03-25T02:59:23;99265.78;;;7.49;96.95
71109;BME280;59614;51.012;-1.648;2023-03-25T03:01:58;99271.09;;;7.48;97.91
71109;BME280;59614;51.012;-1.648;2023-03-25T03:04:25;99267.69;;;7.42;98.77
71109;BME280;59614;51.012;-1.648;2023-03-25T03:06:51;99269.59;;;7.73;98.44
71109;BME280;59614;51.012;-1.648;2023-03-25T03:11:58;99271.03;;;7.49;99.04
71109;BME280;59614;51.012;-1.648;2023-03-25T03:17:07;99265.03;;;7.44;99.66
71109;BME280;59614;51.012;-1.648;2023-03-25T03:19:48;99276.84;;;7.64;99.04
71109;BME280;59614;51.012;-1.648;2023-03-25T03:25:36;99282.91;;;7.67;99.32
71109;BME280;59614;51.012;-1.648;2023-03-25T03:28:09;99292.34;;;7.75;99.32
71109;BME280;59614;51.012;-1.648;2023-03-25T03:33:36;99293.28;;;7.72;98.60
71109;BME280;59614;51.012;-1.648;2023-03-25T03:36:27;99287.97;;;7.75;97.94
71109;BME280;59614;51.012;-1.648;2023-03-25T03:39:01;99288.03;;;7.72;98.48
71109;BME280;59614;51.012;-1.648;2023-03-25T03:41:33;99301.28;;;7.67;98.50
71109;BME280;59614;51.012;-1.648;2023-03-25T03:44:03;99292.41;;;7.71;98.55
71109;BME280;59614;51.012;-1.648;2023-03-25T03:49:04;99302.78;;;7.78;98.08
71109;BME280;59614;51.012;-1.648;2023-03-25T03:51:37;99308.22;;;7.70;97.68
71109;BME280;59614;51.012;-1.648;2023-03-25T03:54:19;99308.72;;;7.87;96.33
71109;BME280;59614;51.012;-1.648;2023-03-25T03:56:52;99306.81;;;7.93;97.11
71109;BME280;59614;51.012;-1.648;2023-03-25T03:59:48;99308.41;;;8.00;95.49
71109;BME280;59614;51.012;-1.648;2023-03-25T04:04:51;99308.31;;;8.03;96.21
71109;BME280;59614;51.012;-1.648;2023-03-25T04:07:22;99300.84;;;7.86;95.34
71109;BME280;59614;51.012;-1.648;2023-03-25T04:10:22;99319.16;;;7.89;95.64
71109;BME280;59614;51.012;-1.648;2023-03-25T04:12:54;99329.50;;;7.97;95.36
71109;BME280;59614;51.012;-1.648;2023-03-25T04:15:22;99316.63;;;8.22;94.70
71109;BME280;59614;51.012;-1.648;2023-03-25T04:17:48;99327.63;;;8.02;94.32
71109;BME280;59614;51.012;-1.648;2023-03-25T04:20:15;99324.16;;;8.00;93.86
71109;BME280;59614;51.012;-1.648;2023-03-25T04:22:42;99324.78;;;8.11;93.90
71109;BME280;59614;51.012;-1.648;2023-03-25T04:25:10;99320.69;;;7.99;93.76
71109;BME280;59614;51.012;-1.648;2023-03-25T04:27:36;99325.88;;;8.01;93.54
71109;BME280;59614;51.012;-1.648;2023-03-25T04:30:04;99324.97;;;8.03;93.21
71109;BME280;59614;51.012;-1.648;2023-03-25T04:32:29;99339.91;;;8.00;92.50
71109;BME280;59614;51.012;-1.648;2023-03-25T04:34:55;99338.00;;;8.08;91.99
71109;BME280;59614;51.012;-1.648;2023-03-25T04:37:26;99336.50;;;7.98;93.25
71109;BME280;59614;51.012;-1.648;2023-03-25T04:39:52;99336.50;;;7.96;92.90
71109;BME280;59614;51.012;-1.648;2023-03-25T04:42:20;99336.63;;;7.92;92.54
71109;BME280;59614;51.012;-1.648;2023-03-25T04:44:52;99340.16;;;7.91;93.03
71109;BME280;59614;51.012;-1.648;2023-03-25T04:47:22;99348.63;;;8.02;93.41
71109;BME280;59614;51.012;-1.648;2023-03-25T04:49:48;99357.56;;;7.95;92.79
71109;BME280;59614;51.012;-1.648;2023-03-25T04:52:14;99354.00;;;7.99;93.16
71109;BME280;59614;51.012;-1.648;2023-03-25T04:54:40;99353.78;;;8.07;92.14
71109;BME280;59614;51.012;-1.648;2023-03-25T04:57:06;99356.84;;;7.88;91.75
71109;BME280;59614;51.012;-1.648;2023-03-25T04:59:34;99358.47;;;7.94;91.87
71109;BME280;59614;51.012;-1.648;2023-03-25T05:02:01;99353.38;;;7.87;91.88
71109;BME280;59614;51.012;-1.648;2023-03-25T05:04:27;99362.09;;;7.88;92.37
71109;BME280;59614;51.012;-1.648;2023-03-25T05:06:53;99362.06;;;7.89;92.68
71109;BME280;59614;51.012;-1.648;2023-03-25T05:09:21;99368.88;;;7.98;92.24
71109;BME280;59614;51.012;-1.648;2023-03-25T05:11:47;99373.19;;;8.01;91.37
71109;BME280;59614;51.012;-1.648;2023-03-25T05:14:14;99380.38;;;7.93;92.22
71109;BME280;59614;51.012;-1.648;2023-03-25T05:16:41;99382.06;;;7.97;92.96
71109;BME280;59614;51.012;-1.648;2023-03-25T05:19:07;99386.31;;;8.02;91.47
71109;BME280;59614;51.012;-1.648;2023-03-25T05:21:34;99386.13;;;8.10;91.13
71109;BME280;59614;51.012;-1.648;2023-03-25T05:24:04;99396.44;;;8.19;91.29
71109;BME280;59614;51.012;-1.648;2023-03-25T05:26:33;99390.56;;;8.07;90.61
71109;BME280;59614;51.012;-1.648;2023-03-25T05:29:03;99393.53;;;7.93;91.15
71109;BME280;59614;51.012;-1.648;2023-03-25T05:31:29;99392.41;;;8.03;90.62
71109;BME280;59614;51.012;-1.648;2023-03-25T05:33:55;99400.56;;;7.92;90.51
71109;BME280;59614;51.012;-1.648;2023-03-25T05:36:21;99402.81;;;8.09;89.49
71109;BME280;59614;51.012;-1.648;2023-03-25T05:38:49;99403.06;;;7.97;91.29
71109;BME280;59614;51.012;-1.648;2023-03-25T05:41:14;99404.00;;;7.94;89.65
71109;BME280;59614;51.012;-1.648;2023-03-25T05:43:44;99402.34;;;7.90;90.54
71109;BME280;59614;51.012;-1.648;2023-03-25T05:46:16;99400.72;;;7.84;91.57
71109;BME280;59614;51.012;-1.648;2023-03-25T05:48:43;99408.66;;;7.81;90.72
71109;BME280;59614;51.012;-1.648;2023-03-25T05:51:17;99409.50;;;7.83;91.45
71109;BME280;59614;51.012;-1.648;2023-03-25T05:53:47;99402.78;;;7.70;91.73
71109;BME280;59614;51.012;-1.648;2023-03-25T05:56:14;99402.66;;;7.76;91.09
71109;BME280;59614;51.012;-1.648;2023-03-25T05:58:42;99411.25;;;7.83;91.05
71109;BME280;59614;51.012;-1.648;2023-03-25T06:01:09;99407.16;;;7.69;90.78
71109;BME280;59614;51.012;-1.648;2023-03-25T06:03:35;99416.38;;;7.89;90.36
71109;BME280;59614;51.012;-1.648;2023-03-25T06:06:01;99408.81;;;7.75;90.61
71109;BME280;59614;51.012;-1.648;2023-03-25T06:08:29;99427.88;;;7.83;91.02
71109;BME280;59614;51.012;-1.648;2023-03-25T06:10:56;99415.31;;;7.98;91.00
71109;BME280;59614;51.012;-1.648;2023-03-25T06:13:25;99418.31;;;7.81;90.75
71109;BME280;59614;51.012;-1.648;2023-03-25T06:15:51;99425.09;;;7.91;89.68
71109;BME280;59614;51.012;-1.648;2023-03-25T06:18:22;99424.41;;;7.81;89.70
71109;BME280;59614;51.012;-1.648;2023-03-25T06:20:51;99418.31;;;7.81;89.79
71109;BME280;59614;51.012;-1.648;2023-03-25T06:23:19;99426.09;;;7.85;89.95
71109;BME280;59614;51.012;-1.648;2023-03-25T06:25:48;99434.66;;;7.94;89.79
71109;BME280;59614;51.012;-1.648;2023-03-25T06:28:13;99445.66;;;8.11;89.56
71109;BME280;59614;51.012;-1.648;2023-03-25T06:30:42;99434.19;;;8.15;90.23
71109;BME280;59614;51.012;-1.648;2023-03-25T06:33:08;99446.28;;;8.23;89.06
71109;BME280;59614;51.012;-1.648;2023-03-25T06:35:35;99451.28;;;8.35;88.10
71109;BME280;59614;51.012;-1.648;2023-03-25T06:38:00;99449.75;;;8.25;88.85
71109;BME280;59614;51.012;-1.648;2023-03-25T06:40:26;99455.63;;;8.38;89.04
71109;BME280;59614;51.012;-1.648;2023-03-25T06:42:51;99458.91;;;8.47;89.08
71109;BME280;59614;51.012;-1.648;2023-03-25T06:45:17;99463.50;;;8.36;88.43
71109;BME280;59614;51.012;-1.648;2023-03-25T06:47:42;99454.50;;;8.46;88.77
71109;BME280;59614;51.012;-1.648;2023-03-25T06:50:08;99468.56;;;8.45;89.19
71109;BME280;59614;51.012;-1.648;2023-03-25T06:52:34;99471.94;;;8.52;89.10
71109;BME280;59614;51.012;-1.648;2023-03-25T06:55:00;99479.63;;;8.98;88.34
71109;BME280;59614;51.012;-1.648;2023-03-25T06:57:25;99467.31;;;9.00;88.38
71109;BME280;59614;51.012;-1.648;2023-03-25T06:59:51;99483.03;;;9.01;87.72
71109;BME280;59614;51.012;-1.648;2023-03-25T07:02:16;99479.94;;;8.85;87.81
71109;BME280;59614;51.012;-1.648;2023-03-25T07:04:42;99485.78;;;8.96;87.89
71109;BME280;59614;51.012;-1.648;2023-03-25T07:07:08;99490.19;;;8.96;87.82
71109;BME280;59614;51.012;-1.648;2023-03-25T07:09:33;99486.81;;;8.91;87.99
71109;BME280;59614;51.012;-1.648;2023-03-25T07:11:58;99502.41;;;9.00;88.07
71109;BME280;59614;51.012;-1.648;2023-03-25T07:14:24;99491.53;;;9.12;87.27
71109;BME280;59614;51.012;-1.648;2023-03-25T07:16:50;99488.81;;;9.16;86.97
71109;BME280;59614;51.012;-1.648;2023-03-25T07:19:15;99491.53;;;9.12;87.37
71109;BME280;59614;51.012;-1.648;2023-03-25T07:21:41;99502.66;;;9.24;87.87
71109;BME280;59614;51.012;-1.648;2023-03-25T07:24:06;99501.16;;;9.14;88.29
71109;BME280;59614;51.012;-1.648;2023-03-25T07:26:32;99506.28;;;9.20;88.90
71109;BME280;59614;51.012;-1.648;2023-03-25T07:28:57;99515.31;;;9.44;88.08
71109;BME280;59614;51.012;-1.648;2023-03-25T07:31:23;99519.00;;;9.37;88.06
71109;BME280;59614;51.012;-1.648;2023-03-25T07:33:48;99525.25;;;9.33;87.36
71109;BME280;59614;51.012;-1.648;2023-03-25T07:36:15;99530.44;;;9.36;87.24
71109;BME280;59614;51.012;-1.648;2023-03-25T07:38:41;99537.25;;;9.45;87.54
71109;BME280;59614;51.012;-1.648;2023-03-25T07:41:11;99536.75;;;9.30;87.38
71109;BME280;59614;51.012;-1.648;2023-03-25T07:43:37;99538.50;;;9.63;86.73
71109;BME280;59614;51.012;-1.648;2023-03-25T07:46:04;99543.56;;;10.03;85.19
71109;BME280;59614;51.012;-1.648;2023-03-25T07:48:29;99553.13;;;10.08;85.78
71109;BME280;59614;51.012;-1.648;2023-03-25T07:50:55;99558.31;;;10.11;85.88
71109;BME280;59614;51.012;-1.648;2023-03-25T07:53:20;99551.16;;;9.83;86.02
71109;BME280;59614;51.012;-1.648;2023-03-25T07:55:46;99564.16;;;10.52;85.10
71109;BME280;59614;51.012;-1.648;2023-03-25T07:58:15;99573.31;;;10.40;85.16
71109;BME280;59614;51.012;-1.648;2023-03-25T08:00:41;99569.59;;;10.47;85.37
71109;BME280;59614;51.012;-1.648;2023-03-25T08:03:06;99585.28;;;10.52;83.71
71109;BME280;59614;51.012;-1.648;2023-03-25T08:05:34;99582.97;;;10.70;84.16
71109;BME280;59614;51.012;-1.648;2023-03-25T08:08:00;99588.28;;;10.40;84.58
71109;BME280;59614;51.012;-1.648;2023-03-25T08:10:25;99590.38;;;10.58;84.23
71109;BME280;59614;51.012;-1.648;2023-03-25T08:12:52;99598.47;;;10.52;84.13
71109;BME280;59614;51.012;-1.648;2023-03-25T08:15:18;99601.84;;;10.57;85.05
71109;BME280;59614;51.012;-1.648;2023-03-25T08:17:45;99604.00;;;10.43;84.04
71109;BME280;59614;51.012;-1.648;2023-03-25T08:20:10;99602.19;;;10.45;84.86
71109;BME280;59614;51.012;-1.648;2023-03-25T08:22:36;99610.59;;;10.88;83.49
71109;BME280;59614;51.012;-1.648;2023-03-25T08:25:02;99612.47;;;10.84;82.10
71109;BME280;59614;51.012;-1.648;2023-03-25T08:27:27;99611.19;;;10.97;81.08
71109;BME280;59614;51.012;-1.648;2023-03-25T08:29:53;99613.66;;;11.31;81.14
71109;BME280;59614;51.012;-1.648;2023-03-25T08:32:22;99616.72;;;11.45;80.70
71109;BME280;59614;51.012;-1.648;2023-03-25T08:34:47;99620.06;;;11.23;80.96
71109;BME280;59614;51.012;-1.648;2023-03-25T08:37:13;99622.19;;;11.39;81.61
71109;BME280;59614;51.012;-1.648;2023-03-25T08:39:40;99617.00;;;12.15;78.97
71109;BME280;59614;51.012;-1.648;2023-03-25T08:42:09;99628.59;;;11.58;79.01
71109;BME280;59614;51.012;-1.648;2023-03-25T08:44:35;99634.94;;;11.26;80.90
71109;BME280;59614;51.012;-1.648;2023-03-25T08:47:02;99638.41;;;11.55;79.08
71109;BME280;59614;51.012;-1.648;2023-03-25T08:49:28;99638.53;;;11.50;79.68
71109;BME280;59614;51.012;-1.648;2023-03-25T08:51:53;99646.19;;;11.59;79.25
71109;BME280;59614;51.012;-1.648;2023-03-25T08:54:18;99640.81;;;11.88;79.03
71109;BME280;59614;51.012;-1.648;2023-03-25T08:56:44;99639.34;;;12.06;76.91
71109;BME280;59614;51.012;-1.648;2023-03-25T08:59:10;99658.44;;;11.62;78.52
71109;BME280;59614;51.012;-1.648;2023-03-25T09:01:37;99650.75;;;11.54;78.45
71109;BME280;59614;51.012;-1.648;2023-03-25T09:04:02;99670.22;;;11.52;80.18
71109;BME280;59614;51.012;-1.648;2023-03-25T09:06:28;99671.00;;;11.27;80.16
71109;BME280;59614;51.012;-1.648;2023-03-25T09:08:53;99673.50;;;11.32;79.95
71109;BME280;59614;51.012;-1.648;2023-03-25T09:11:20;99675.81;;;11.42;79.95
71109;BME280;59614;51.012;-1.648;2023-03-25T09:13:46;99671.13;;;11.78;77.60
71109;BME280;59614;51.012;-1.648;2023-03-25T09:16:11;99672.97;;;11.49;79.17
71109;BME280;59614;51.012;-1.648;2023-03-25T09:18:36;99664.19;;;11.48;77.27
71109;BME280;59614;51.012;-1.648;2023-03-25T09:21:02;99667.53;;;11.80;77.08
71109;BME280;59614;51.012;-1.648;2023-03-25T09:23:28;99669.38;;;11.77;76.85
71109;BME280;59614;51.012;-1.648;2023-03-25T09:25:59;99681.06;;;12.48;76.11
71109;BME280;59614;51.012;-1.648;2023-03-25T09:28:25;99677.09;;;12.11;76.26
71109;BME280;59614;51.012;-1.648;2023-03-25T09:30:51;99675.47;;;12.56;74.02
71109;BME280;59614;51.012;-1.648;2023-03-25T09:33:17;99668.13;;;12.88;73.75
71109;BME280;59614;51.012;-1.648;2023-03-25T09:35:43;99672.66;;;13.08;72.83
71109;BME280;59614;51.012;-1.648;2023-03-25T09:38:08;99673.69;;;13.72;70.12
71109;BME280;59614;51.012;-1.648;2023-03-25T09:40:34;99667.03;;;13.62;69.22
71109;BME280;59614;51.012;-1.648;2023-03-25T09:45:47;99678.28;;;12.77;72.08
71109;BME280;59614;51.012;-1.648;2023-03-25T09:50:46;99693.44;;;12.48;72.69
71109;BME280;59614;51.012;-1.648;2023-03-25T09:53:34;99695.59;;;12.36;73.10
71109;BME280;59614;51.012;-1.648;2023-03-25T09:56:03;99694.75;;;12.36;73.03
71109;BME280;59614;51.012;-1.648;2023-03-25T09:58:44;99699.72;;;12.45;74.89
71109;BME280;59614;51.012;-1.648;2023-03-25T10:07:07;99715.63;;;12.69;72.91
71109;BME280;59614;51.012;-1.648;2023-03-25T10:15:47;99736.44;;;12.55;74.68
71109;BME280;59614;51.012;-1.648;2023-03-25T10:18:21;99728.44;;;12.31;74.44
71109;BME280;59614;51.012;-1.648;2023-03-25T10:21:00;99741.34;;;12.40;74.13
71109;BME280;59614;51.012;-1.648;2023-03-25T10:26:15;99740.56;;;14.22;68.00
71109;BME280;59614;51.012;-1.648;2023-03-25T10:28:49;99733.88;;;14.75;66.22
71109;BME280;59614;51.012;-1.648;2023-03-25T10:31:19;99737.38;;;14.96;64.86
71109;BME280;59614;51.012;-1.648;2023-03-25T10:34:00;99741.53;;;15.40;64.59
71109;BME280;59614;51.012;-1.648;2023-03-25T10:36:32;99747.13;;;14.96;63.81
71109;BME280;59614;51.012;-1.648;2023-03-25T10:39:00;99744.38;;;15.74;63.41
71109;BME280;59614;51.012;-1.648;2023-03-25T10:41:34;99748.59;;;15.78;60.31
71109;BME280;59614;51.012;-1.648;2023-03-25T10:44:07;99749.38;;;15.99;60.87
71109;BME280;59614;51.012;-1.648;2023-03-25T10:47:00;99766.25;;;15.23;62.77
71109;BME280;59614;51.012;-1.648;2023-03-25T10:49:30;99761.19;;;14.15;70.92
71109;BME280;59614;51.012;-1.648;2023-03-25T10:51:57;99768.53;;;13.66;70.48
71109;BME280;59614;51.012;-1.648;2023-03-25T10:54:33;99787.28;;;13.37;72.33
71109;BME280;59614;51.012;-1.648;2023-03-25T10:57:08;99777.69;;;12.86;72.13
71109;BME280;59614;51.012;-1.648;2023-03-25T10:59:55;99793.63;;;13.57;71.54
71109;BME280;59614;51.012;-1.648;2023-03-25T11:02:23;99791.00;;;14.22;68.50
71109;BME280;59614;51.012;-1.648;2023-03-25T11:04:53;99795.91;;;13.88;68.66
71109;BME280;59614;51.012;-1.648;2023-03-25T11:07:35;99788.75;;;13.21;70.89
71109;BME280;59614;51.012;-1.648;2023-03-25T11:10:43;99790.09;;;13.79;71.06
71109;BME280;59614;51.012;-1.648;2023-03-25T11:13:02;99791.41;;;14.33;69.15
71109;BME280;59614;51.012;-1.648;2023-03-25T11:15:36;99787.69;;;15.00;68.54
71109;BME280;59614;51.012;-1.648;2023-03-25T11:20:47;99791.22;;;14.38;67.52
71109;BME280;59614;51.012;-1.648;2023-03-25T11:26:42;99801.94;;;14.78;68.46
71109;BME280;59614;51.012;-1.648;2023-03-25T11:29:11;99800.06;;;14.59;68.08
71109;BME280;59614;51.012;-1.648;2023-03-25T11:31:40;99797.53;;;14.35;69.31
71109;BME280;59614;51.012;-1.648;2023-03-25T11:41:51;99793.09;;;14.57;68.18
71109;BME280;59614;51.012;-1.648;2023-03-25T11:44:30;99795.91;;;14.74;68.50
71109;BME280;59614;51.012;-1.648;2023-03-25T11:47:05;99783.72;;;15.29;63.45
71109;BME280;59614;51.012;-1.648;2023-03-25T11:49:34;99786.38;;;15.48;63.56
71109;BME280;59614;51.012;-1.648;2023-03-25T11:52:13;99784.06;;;15.79;63.14
71109;BME280;59614;51.012;-1.648;2023-03-25T11:54:43;99777.91;;;15.40;61.78
71109;BME280;59614;51.012;-1.648;2023-03-25T11:57:12;99772.19;;;15.67;62.30
71109;BME280;59614;51.012;-1.648;2023-03-25T11:59:43;99775.03;;;15.44;62.74
71109;BME280;59614;51.012;-1.648;2023-03-25T12:02:22;99783.34;;;14.57;61.60
71109;BME280;59614;51.012;-1.648;2023-03-25T12:05:01;99775.88;;;14.24;61.89
71109;BME280;59614;51.012;-1.648;2023-03-25T12:07:27;99778.41;;;13.62;61.23
71109;BME280;59614;51.012;-1.648;2023-03-25T12:10:02;99789.13;;;13.81;64.73
71109;BME280;59614;51.012;-1.648;2023-03-25T12:12:52;99790.97;;;14.65;61.88
71109;BME280;59614;51.012;-1.648;2023-03-25T12:23:43;99787.09;;;15.13;62.50
71109;BME280;59614;51.012;-1.648;2023-03-25T12:26:18;99784.16;;;15.20;59.31
71109;BME280;59614;51.012;-1.648;2023-03-25T12:31:57;99782.41;;;14.58;62.48
71109;BME280;59614;51.012;-1.648;2023-03-25T12:34:40;99791.06;;;14.63;63.04
71109;BME280;59614;51.012;-1.648;2023-03-25T12:37:25;99795.16;;;14.07;62.29
71109;BME280;59614;51.012;-1.648;2023-03-25T12:40:29;99796.84;;;13.87;63.46
71109;BME280;59614;51.012;-1.648;2023-03-25T12:43:09;99807.38;;;13.67;65.40
71109;BME280;59614;51.012;-1.648;2023-03-25T12:45:44;99810.31;;;13.11;73.12
71109;BME280;59614;51.012;-1.648;2023-03-25T12:54:23;99822.38;;;13.68;74.45
71109;BME280;59614;51.012;-1.648;2023-03-25T12:57:26;99811.94;;;14.08;73.80
71109;BME280;59614;51.012;-1.648;2023-03-25T12:59:59;99815.25;;;14.35;71.85
71109;BME280;59614;51.012;-1.648;2023-03-25T13:08:00;99814.72;;;14.70;68.34
71109;BME280;59614;51.012;-1.648;2023-03-25T13:10:33;99821.78;;;14.05;68.52
71109;BME280;59614;51.012;-1.648;2023-03-25T13:13:03;99822.53;;;14.93;67.05
71109;BME280;59614;51.012;-1.648;2023-03-25T13:15:34;99824.41;;;14.71;68.56
71109;BME280;59614;51.012;-1.648;2023-03-25T13:18:05;99814.91;;;14.86;65.45
71109;BME280;59614;51.012;-1.648;2023-03-25T13:20:38;99812.69;;;15.35;65.95
71109;BME280;59614;51.012;-1.648;2023-03-25T13:23:06;99812.47;;;15.21;62.27
71109;BME280;59614;51.012;-1.648;2023-03-25T13:28:27;99814.44;;;14.76;59.98
71109;BME280;59614;51.012;-1.648;2023-03-25T13:31:05;99806.94;;;14.43;59.38
71109;BME280;59614;51.012;-1.648;2023-03-25T13:33:41;99833.13;;;14.52;60.12
71109;BME280;59614;51.012;-1.648;2023-03-25T13:38:42;99825.06;;;15.36;59.10
71109;BME280;59614;51.012;-1.648;2023-03-25T13:41:27;99825.34;;;15.68;59.43
71109;BME280;59614;51.012;-1.648;2023-03-25T13:44:12;99834.69;;;15.96;57.70
71109;BME280;59614;51.012;-1.648;2023-03-25T13:46:49;99834.34;;;15.85;56.32
71109;BME280;59614;51.012;-1.648;2023-03-25T13:49:32;99820.44;;;15.78;58.03
71109;BME280;59614;51.012;-1.648;2023-03-25T13:51:58;99831.63;;;15.86;57.38
71109;BME280;59614;51.012;-1.648;2023-03-25T14:15:19;99825.31;;;15.30;58.79
71109;BME280;59614;51.012;-1.648;2023-03-25T14:17:43;99815.72;;;14.65;58.80
71109;BME280;59614;51.012;-1.648;2023-03-25T14:20:16;99814.72;;;14.47;58.61
71109;BME280;59614;51.012;-1.648;2023-03-25T14:22:45;99828.34;;;14.60;60.79
71109;BME280;59614;51.012;-1.648;2023-03-25T14:25:27;99825.44;;;15.08;58.46
71109;BME280;59614;51.012;-1.648;2023-03-25T14:27:53;99831.22;;;14.97;58.18
71109;BME280;59614;51.012;-1.648;2023-03-25T14:30:27;99833.13;;;15.14;57.97
71109;BME280;59614;51.012;-1.648;2023-03-25T14:32:54;99833.38;;;14.68;56.70
71109;BME280;59614;51.012;-1.648;2023-03-25T14:43:02;99833.38;;;14.46;58.59
71109;BME280;59614;51.012;-1.648;2023-03-25T14:47:57;99829.50;;;14.32;59.54
71109;BME280;59614;51.012;-1.648;2023-03-25T14:52:50;99843.69;;;14.31;59.54
71109;BME280;59614;51.012;-1.648;2023-03-25T14:58:39;99841.53;;;14.19;60.22
71109;BME280;59614;51.012;-1.648;2023-03-25T15:00:44;99846.13;;;14.15;61.84
71109;BME280;59614;51.012;-1.648;2023-03-25T15:03:16;99851.03;;;13.80;65.25
71109;BME280;59614;51.012;-1.648;2023-03-25T15:05:44;99857.13;;;13.60;66.84
71109;BME280;59614;51.012;-1.648;2023-03-25T15:08:27;99850.81;;;13.86;66.38
71109;BME280;59614;51.012;-1.648;2023-03-25T15:11:08;99856.78;;;13.46;67.12
71109;BME280;59614;51.012;-1.648;2023-03-25T15:13:41;99853.09;;;13.50;68.89
71109;BME280;59614;51.012;-1.648;2023-03-25T15:16:17;99853.44;;;13.64;69.01
71109;BME280;59614;51.012;-1.648;2023-03-25T15:26:48;99851.97;;;13.06;73.11
71109;BME280;59614;51.012;-1.648;2023-03-25T15:43:08;99860.94;;;12.51;76.45
71109;BME280;59614;51.012;-1.648;2023-03-25T15:57:46;99839.25;;;12.40;78.11
71109;BME280;59614;51.012;-1.648;2023-03-25T16:00:23;99835.19;;;12.03;78.24
71109;BME280;59614;51.012;-1.648;2023-03-25T16:03:12;99827.38;;;12.27;77.82
71109;BME280;59614;51.012;-1.648;2023-03-25T16:05:45;99845.03;;;12.53;76.20